WXM80 ListenWXM80 Stop

You find our weather info also at:

UK Metoffice

WeatherCloud

Weather Underground

Northeastern Weather Network

AWEKAS

Citizen Weather Observer Program (CWOP)

HAMweather, WeatherForYou, PWS Weather


Weather Underground History page Text

Daily Summary for March 30, 2017 Units:  Metric    English   Both
« Previous Day
Next Day »
Daily Weekly Monthly Yearly Custom
  High: Low: Average:
Temperature: 12.2 °C 2.5 °C 6.6 °C
Dew Point: 2.1 °C -3 °C -1.1 °C
Humidity: 78 % 36 % 60 %
Wind Speed: 14.3 km/h 0 km/h 4.5 km/h
Wind Gust: 22.2 km/h - -
Wind:- - SSW
Pressure: 1024.3 hPa 1018.5 hPa -
Precipitation: 0 mm    
Historical Graphs
 
 
Tabular Data for March 30, 2017
Time Temperature Dew Point Pressure Wind Wind Speed Wind Gust Humidity Rainfall Rate (Hourly)
00:01 5 °C -1.9 °C 1022.6 hPa NNE 13.5 km/h 22.2 km/h 61 % 0 mm
00:06 5 °C -2.1 °C 1022.6 hPa NE 14.3 km/h 18.5 km/h 60 % 0 mm
00:11 5 °C -2.1 °C 1022.9 hPa NNE 9.3 km/h 14.8 km/h 60 % 0 mm
00:16 5 °C -1.7 °C 1022.9 hPa NNE 5.5 km/h 9.3 km/h 62 % 0 mm
00:21 4.9 °C -1.5 °C 1022.9 hPa NE 4.8 km/h 11.1 km/h 63 % 0 mm
00:26 4.9 °C -1.3 °C 1022.9 hPa NNE 9.5 km/h 13 km/h 64 % 0 mm
00:31 4.8 °C -1.9 °C 1022.9 hPa NNE 10.5 km/h 16.7 km/h 62 % 0 mm
00:36 4.7 °C -1.9 °C 1022.9 hPa North 6.1 km/h 16.7 km/h 62 % 0 mm
00:41 4.7 °C -1.5 °C 1022.9 hPa NE 8.2 km/h 9.3 km/h 64 % 0 mm
00:46 4.7 °C -1.3 °C 1022.9 hPa NNE 5.3 km/h 9.3 km/h 65 % 0 mm
00:51 4.6 °C -1.4 °C 1022.6 hPa NNE 6.8 km/h 8 km/h 65 % 0 mm
00:56 4.6 °C -1.3 °C 1022.2 hPa NNE 8.2 km/h 11.1 km/h 66 % 0 mm
01:01 4.4 °C -1.2 °C 1022.2 hPa NNE 7.7 km/h 11.1 km/h 67 % 0 mm
01:06 4.4 °C -1.2 °C 1022.2 hPa NE 1.1 km/h 5.6 km/h 67 % 0 mm
01:12 4.3 °C -1.1 °C 1022.2 hPa NE 3.7 km/h 5.6 km/h 68 % 0 mm
01:17 4.3 °C -0.9 °C 1022.6 hPa NE 4.2 km/h 5.6 km/h 69 % 0 mm
01:22 4.2 °C -0.8 °C 1022.6 hPa NNE 3.4 km/h 6.4 km/h 70 % 0 mm
01:27 4.1 °C -0.9 °C 1022.6 hPa North 0.3 km/h 3.7 km/h 70 % 0 mm
01:32 4.1 °C -1.1 °C 1022.6 hPa North 0.2 km/h 1.9 km/h 69 % 0 mm
01:37 3.9 °C -1.1 °C 1022.2 hPa North 3.4 km/h 5.6 km/h 70 % 0 mm
01:42 3.8 °C -0.9 °C 1021.9 hPa North 3.1 km/h 7.4 km/h 71 % 0 mm
01:47 3.8 °C -1 °C 1022.2 hPa Calm   1.9 km/h 71 % 0 mm
01:52 3.6 °C -1.2 °C 1022.2 hPa NE 0.2 km/h 1.9 km/h 71 % 0 mm
01:57 3.6 °C -1 °C 1021.9 hPa NE 2.1 km/h 5.6 km/h 72 % 0 mm
02:02 3.5 °C -0.9 °C 1021.9 hPa NNW 3.9 km/h 5.6 km/h 73 % 0 mm
02:07 3.4 °C -0.8 °C 1021.9 hPa NNE 4.2 km/h 8 km/h 74 % 0 mm
02:12 3.3 °C -1.2 °C 1021.9 hPa North 3.5 km/h 7.4 km/h 72 % 0 mm
02:17 3.3 °C -1.3 °C 1021.9 hPa North 1.4 km/h 3.7 km/h 72 % 0 mm
02:22 3.3 °C -1.1 °C 1021.6 hPa North 3.1 km/h 7.4 km/h 73 % 0 mm
02:27 3.2 °C -1.2 °C 1021.6 hPa North 1.6 km/h 8 km/h 73 % 0 mm
02:32 3.2 °C -1.3 °C 1021.6 hPa Calm   6.4 km/h 72 % 0 mm
02:37 3.2 °C -1.2 °C 1021.6 hPa NNW 1.1 km/h 3.7 km/h 73 % 0 mm
02:42 3.2 °C -1.2 °C 1021.6 hPa North 4.8 km/h 7.4 km/h 73 % 0 mm
02:47 3.2 °C -1.4 °C 1021.6 hPa NNE 6.3 km/h 11.3 km/h 72 % 0 mm
02:52 3.2 °C -1.6 °C 1021.2 hPa NNE 5.8 km/h 9.3 km/h 71 % 0 mm
02:57 3.2 °C -1.6 °C 1021.6 hPa NNE 4 km/h 7.4 km/h 71 % 0 mm
03:02 3.1 °C -1.7 °C 1021.6 hPa North 4.8 km/h 11.3 km/h 71 % 0 mm
03:07 3.1 °C -1.4 °C 1021.2 hPa North 1.6 km/h 4.8 km/h 72 % 0 mm
03:12 3.1 °C -1.3 °C 1021.6 hPa Calm   9.7 km/h 73 % 0 mm
03:17 3.1 °C -1.3 °C 1021.6 hPa NW 1.6 km/h 3.2 km/h 73 % 0 mm
03:22 3.1 °C -1.6 °C 1021.6 hPa NNW 3.2 km/h 9.7 km/h 72 % 0 mm
03:27 3 °C -1.6 °C 1021.2 hPa North 1.6 km/h 9.7 km/h 72 % 0 mm
03:32 2.9 °C -1.6 °C 1021.2 hPa North 1.6 km/h 4.8 km/h 72 % 0 mm
03:37 2.9 °C -1.6 °C 1021.6 hPa NNE 0.3 km/h 1.9 km/h 72 % 0 mm
03:42 2.9 °C -1.6 °C 1021.6 hPa NNE 1.8 km/h 5.6 km/h 72 % 0 mm
03:47 2.9 °C -1.5 °C 1021.6 hPa North 2.4 km/h 5.6 km/h 73 % 0 mm
03:52 2.8 °C -1.6 °C 1021.6 hPa NNW 1.9 km/h 3.7 km/h 73 % 0 mm
03:57 2.8 °C -1.6 °C 1021.9 hPa North 0.8 km/h 3.7 km/h 73 % 0 mm
04:02 2.8 °C -1.8 °C 1021.9 hPa NNW 1.6 km/h 9.3 km/h 72 % 0 mm
04:07 2.8 °C -1.9 °C 1021.9 hPa North 7.4 km/h 14.5 km/h 71 % 0 mm
04:12 2.8 °C -1.9 °C 1021.9 hPa NE 5 km/h 8 km/h 71 % 0 mm
04:17 2.8 °C -1.9 °C 1022.2 hPa NNW 1 km/h 5.6 km/h 71 % 0 mm
04:22 2.8 °C -1.8 °C 1022.2 hPa NW 4.8 km/h 8 km/h 72 % 0 mm
04:23 2.8 °C -1.9 °C 1022.2 hPa NW 3.9 km/h 7.4 km/h 71 % 0 mm
04:28 2.8 °C -1.8 °C 1022.2 hPa NW 3.7 km/h 6.4 km/h 72 % 0 mm
04:33 2.8 °C -1.6 °C 1022.2 hPa WNW 5 km/h 9.3 km/h 73 % 0 mm
04:38 2.8 °C -1.6 °C 1022.2 hPa NW 2.6 km/h 8 km/h 73 % 0 mm
04:44 2.7 °C -1.6 °C 1022.2 hPa NW 2.6 km/h 7.4 km/h 73 % 0 mm
04:49 2.7 °C -1.6 °C 1022.2 hPa NW 3.9 km/h 9.3 km/h 73 % 0 mm
04:54 2.7 °C -1.6 °C 1022.6 hPa NW 4.3 km/h 5.6 km/h 73 % 0 mm
04:59 2.7 °C -1.7 °C 1022.6 hPa NW 3.2 km/h 5.6 km/h 73 % 0 mm
05:04 2.7 °C -1.9 °C 1022.6 hPa WNW 4.5 km/h 9.7 km/h 72 % 0 mm
05:09 2.7 °C -1.7 °C 1022.9 hPa NW 4.8 km/h 9.3 km/h 73 % 0 mm
05:14 2.7 °C -1.7 °C 1022.6 hPa NW 4.7 km/h 5.6 km/h 73 % 0 mm
05:19 2.7 °C -1.7 °C 1022.9 hPa WNW 2.3 km/h 9.3 km/h 73 % 0 mm
05:24 2.6 °C -1.9 °C 1022.9 hPa NNE 6.3 km/h 8 km/h 72 % 0 mm
05:29 2.6 °C -1.9 °C 1022.9 hPa NNW 0.8 km/h 5.6 km/h 72 % 0 mm
05:34 2.6 °C -1.7 °C 1022.9 hPa North 4.2 km/h 14.8 km/h 73 % 0 mm
05:39 2.6 °C -1.9 °C 1022.9 hPa NNW 7.2 km/h 11.3 km/h 72 % 0 mm
05:44 2.6 °C -1.9 °C 1022.9 hPa NW 4.8 km/h 14.8 km/h 72 % 0 mm
05:49 2.7 °C -1.9 °C 1023.2 hPa NNW 4.5 km/h 9.3 km/h 72 % 0 mm
05:54 2.7 °C -1.8 °C 1023.2 hPa North 4 km/h 13 km/h 72 % 0 mm
05:59 2.7 °C -1.9 °C 1023.6 hPa NNW 2.7 km/h 9.3 km/h 72 % 0 mm
06:04 2.7 °C -1.9 °C 1022.9 hPa Calm   1.9 km/h 72 % 0 mm
06:09 2.7 °C -1.9 °C 1022.9 hPa NNW 6.8 km/h 13 km/h 72 % 0 mm
06:14 2.7 °C -1.9 °C 1022.9 hPa NW 7.4 km/h 7.4 km/h 72 % 0 mm
06:19 2.7 °C -1.7 °C 1023.2 hPa NNW 1.4 km/h 5.6 km/h 73 % 0 mm
06:24 2.6 °C -1.9 °C 1022.9 hPa NW 6.3 km/h 9.7 km/h 72 % 0 mm
06:29 2.6 °C -1.8 °C 1023.2 hPa NW 5 km/h 13 km/h 73 % 0 mm
06:34 2.6 °C -2 °C 1023.2 hPa NNW 1.4 km/h 7.4 km/h 72 % 0 mm
06:40 2.6 °C -2 °C 1023.2 hPa North 4.3 km/h 9.3 km/h 72 % 0 mm
06:45 2.6 °C -2.2 °C 1023.2 hPa North 8.7 km/h 13 km/h 71 % 0 mm
06:50 2.5 °C -2.1 °C 1023.2 hPa NW 5.8 km/h 9.3 km/h 72 % 0 mm
06:55 2.5 °C -2.2 °C 1023.2 hPa NNW 9 km/h 18.5 km/h 71 % 0 mm
07:00 2.6 °C -2.2 °C 1023.6 hPa North 4 km/h 13 km/h 71 % 0 mm
07:05 2.7 °C -2.3 °C 1023.9 hPa NNW 3.4 km/h 9.3 km/h 70 % 0 mm
07:10 2.7 °C -2.3 °C 1023.9 hPa North 4 km/h 5.6 km/h 70 % 0 mm
07:15 2.8 °C -2.3 °C 1023.9 hPa NNW 9.7 km/h 18.5 km/h 69 % 0 mm
07:20 2.8 °C -2.3 °C 1024.3 hPa North 6.8 km/h 9.3 km/h 69 % 0 mm
07:25 2.9 °C -2.2 °C 1023.9 hPa WNW 5.6 km/h 11.1 km/h 69 % 0 mm
07:30 3 °C -2.1 °C 1024.3 hPa NW 4.8 km/h 13 km/h 69 % 0 mm
07:35 3.1 °C -2.1 °C 1024.3 hPa NW 6.9 km/h 13 km/h 69 % 0 mm
07:40 3.2 °C -2 °C 1024.3 hPa NW 4.7 km/h 9.3 km/h 69 % 0 mm
07:45 3.3 °C -1.9 °C 1024.3 hPa NNW 4.5 km/h 9.7 km/h 69 % 0 mm
07:50 3.4 °C -1.9 °C 1024.3 hPa NNW 7.4 km/h 14.8 km/h 68 % 0 mm
07:55 3.6 °C -1.9 °C 1023.9 hPa North 9.3 km/h 13 km/h 67 % 0 mm
08:00 3.7 °C -1.8 °C 1023.9 hPa NW 7.6 km/h 13 km/h 67 % 0 mm
08:05 3.9 °C -2.1 °C 1024.3 hPa NNW 5.1 km/h 9.7 km/h 65 % 0 mm
08:10 4.1 °C -1.7 °C 1024.3 hPa NW 5.5 km/h 9.3 km/h 66 % 0 mm
08:15 4.2 °C -2.1 °C 1024.3 hPa North 6 km/h 13 km/h 64 % 0 mm
08:20 4.3 °C -1.9 °C 1024.3 hPa North 6.3 km/h 9.7 km/h 64 % 0 mm
08:25 4.4 °C -2 °C 1024.3 hPa North 5.5 km/h 9.3 km/h 63 % 0 mm
08:30 4.7 °C -1.6 °C 1024.3 hPa NNW 6.6 km/h 14.8 km/h 64 % 0 mm
08:35 4.8 °C -1.7 °C 1023.9 hPa NNW 6.6 km/h 14.8 km/h 63 % 0 mm
08:40 4.9 °C -1.8 °C 1023.6 hPa NNW 7.4 km/h 13 km/h 62 % 0 mm
08:45 5.1 °C -1.4 °C 1023.9 hPa NNE 6.6 km/h 9.3 km/h 63 % 0 mm
08:51 5.2 °C -1.3 °C 1023.9 hPa North 5.6 km/h 9.3 km/h 63 % 0 mm
08:56 5.3 °C -1.4 °C 1023.6 hPa North 1.6 km/h 3.7 km/h 62 % 0 mm
09:01 5.3 °C -1.7 °C 1023.6 hPa NNE 5.1 km/h 7.4 km/h 61 % 0 mm
09:06 5.4 °C -1.3 °C 1023.6 hPa NNE 3.9 km/h 6.4 km/h 62 % 0 mm
09:11 5.7 °C -1.4 °C 1023.6 hPa North 8.7 km/h 13 km/h 60 % 0 mm
09:16 5.8 °C -1.8 °C 1023.6 hPa NNE 7.4 km/h 11.3 km/h 58 % 0 mm
09:21 5.8 °C -1.8 °C 1023.6 hPa NNE 5.8 km/h 9.3 km/h 58 % 0 mm
09:26 5.9 °C -1.4 °C 1023.6 hPa NE 7.1 km/h 11.1 km/h 59 % 0 mm
09:31 6.3 °C -0.7 °C 1023.2 hPa NE 4 km/h 7.4 km/h 61 % 0 mm
09:36 6.4 °C -1.4 °C 1023.6 hPa NE 7.6 km/h 11.3 km/h 57 % 0 mm
09:41 6.4 °C -1.4 °C 1023.9 hPa NNW 6.3 km/h 9.7 km/h 57 % 0 mm
09:46 6.7 °C -0.8 °C 1023.9 hPa NNE 5.1 km/h 9.3 km/h 59 % 0 mm
09:51 7 °C -0.7 °C 1023.6 hPa NE 7.9 km/h 13 km/h 58 % 0 mm
09:56 7.2 °C -0.7 °C 1023.6 hPa North 6.1 km/h 7.4 km/h 57 % 0 mm
10:01 7.4 °C -1 °C 1023.9 hPa NNW 5.1 km/h 13 km/h 55 % 0 mm
10:06 7.5 °C -1.2 °C 1023.9 hPa NNW 9 km/h 14.8 km/h 54 % 0 mm
10:11 7.6 °C -1.7 °C 1023.9 hPa North 6.8 km/h 16.7 km/h 52 % 0 mm
10:16 7.8 °C -0.7 °C 1023.6 hPa North 5.6 km/h 9.3 km/h 55 % 0 mm
10:22 7.9 °C -1.1 °C 1023.9 hPa NNE 8.5 km/h 11.3 km/h 53 % 0 mm
10:27 8 °C -1.3 °C 1023.6 hPa East 4.5 km/h 8 km/h 52 % 0 mm
10:32 8.3 °C -0.4 °C 1023.6 hPa North 8.7 km/h 11.1 km/h 54 % 0 mm
10:37 8.6 °C -1 °C 1023.6 hPa NNE 5.8 km/h 7.4 km/h 51 % 0 mm
10:42 8.7 °C -0.9 °C 1023.6 hPa NNE 6.3 km/h 9.7 km/h 51 % 0 mm
10:47 8.7 °C -0.9 °C 1023.6 hPa ENE 7.6 km/h 11.1 km/h 51 % 0 mm
10:52 8.6 °C -0.5 °C 1023.6 hPa ENE 5.3 km/h 11.1 km/h 53 % 0 mm
10:57 8.7 °C -1.2 °C 1023.2 hPa NE 4.7 km/h 9.7 km/h 50 % 0 mm
11:02 8.2 °C -1.9 °C 1023.6 hPa ENE 5.5 km/h 7.4 km/h 49 % 0 mm
11:07 8.2 °C -1.3 °C 1023.2 hPa NE 3.7 km/h 7.4 km/h 51 % 0 mm
11:12 8.2 °C -1.9 °C 1022.9 hPa ENE 1.8 km/h 5.6 km/h 49 % 0 mm
11:17 8.3 °C -1.5 °C 1022.9 hPa NE 2.1 km/h 5.6 km/h 50 % 0 mm
11:22 8.4 °C -2.2 °C 1022.9 hPa ENE 2.9 km/h 11.1 km/h 47 % 0 mm
11:27 8.4 °C -1.4 °C 1022.9 hPa ENE 4.8 km/h 6.4 km/h 50 % 0 mm
11:32 8.7 °C -1.1 °C 1022.9 hPa NNE 3.2 km/h 8 km/h 50 % 0 mm
11:37 8.8 °C -1.3 °C 1022.6 hPa NE 4.8 km/h 8 km/h 49 % 0 mm
11:42 8.4 °C -2.3 °C 1022.2 hPa ENE 4.8 km/h 8 km/h 47 % 0 mm
11:47 7.9 °C -3 °C 1022.2 hPa East 3.2 km/h 8 km/h 46 % 0 mm
11:52 7.8 °C -1.9 °C 1022.2 hPa East 3.2 km/h 8 km/h 50 % 0 mm
11:57 7.9 °C -2.7 °C 1022.2 hPa NE 6 km/h 8 km/h 47 % 0 mm
12:02 7.9 °C -2.4 °C 1022.2 hPa ENE 4.8 km/h 11.3 km/h 48 % 0 mm
12:07 8.1 °C -2 °C 1022.6 hPa ENE 3.2 km/h 8 km/h 49 % 0 mm
12:12 8.2 °C -2.2 °C 1022.2 hPa ENE 3.2 km/h 9.7 km/h 48 % 0 mm
12:17 8.6 °C -1.6 °C 1022.2 hPa ENE 1.6 km/h 4.8 km/h 49 % 0 mm
12:22 9.1 °C -0.8 °C 1022.6 hPa ENE 3.2 km/h 8 km/h 50 % 0 mm
12:27 9.6 °C -0.3 °C 1022.2 hPa North 4.8 km/h 9.7 km/h 50 % 0 mm
12:32 9.8 °C -1.6 °C 1022.6 hPa NW 1.6 km/h 9.7 km/h 45 % 0 mm
12:37 10 °C 0.1 °C 1022.2 hPa SSE 2.1 km/h 7.4 km/h 50 % 0 mm
12:42 10.6 °C -0.2 °C 1022.2 hPa SW 1.4 km/h 6.4 km/h 47 % 0 mm
12:47 10.9 °C -0.6 °C 1022.2 hPa SW 8 km/h 12.9 km/h 45 % 0 mm
12:52 10.8 °C -1.3 °C 1022.2 hPa WSW 8 km/h 16.1 km/h 43 % 0 mm
12:57 10.9 °C -0.8 °C 1021.9 hPa WSW 6.4 km/h 11.1 km/h 44 % 0 mm
13:03 11.1 °C -1.3 °C 1021.9 hPa SW 10.3 km/h 13 km/h 42 % 0 mm
13:08 10.9 °C -1.2 °C 1021.6 hPa SW 6.8 km/h 9.3 km/h 43 % 0 mm
13:13 10.9 °C -2.2 °C 1021.6 hPa WSW 8.2 km/h 11.1 km/h 40 % 0 mm
13:18 11.1 °C -1.7 °C 1021.6 hPa WSW 6.8 km/h 13 km/h 41 % 0 mm
13:23 11.2 °C -1.6 °C 1021.9 hPa SSW 6.3 km/h 9.7 km/h 41 % 0 mm
13:28 11.1 °C -2 °C 1021.6 hPa WSW 11.7 km/h 14.5 km/h 40 % 0 mm
13:33 10.9 °C -1.5 °C 1021.6 hPa NW 4.3 km/h 9.3 km/h 42 % 0 mm
13:38 10.9 °C -1.8 °C 1021.6 hPa SSW 4.5 km/h 9.7 km/h 41 % 0 mm
13:43 11.1 °C -1.4 °C 1021.6 hPa NW 0.5 km/h 5.6 km/h 42 % 0 mm
13:48 10.9 °C -2.5 °C 1021.2 hPa SSW 1.9 km/h 9.7 km/h 39 % 0 mm
13:53 10.9 °C -1.5 °C 1021.2 hPa WNW 3.5 km/h 5.6 km/h 42 % 0 mm
13:58 10.9 °C -2.5 °C 1021.2 hPa NNW 3.2 km/h 9.3 km/h 39 % 0 mm
14:03 11 °C -1.8 °C 1021.2 hPa WNW 3.9 km/h 6.4 km/h 41 % 0 mm
14:08 11.2 °C -1.6 °C 1021.2 hPa SW 5.5 km/h 9.3 km/h 41 % 0 mm
14:13 11.5 °C -2 °C 1021.2 hPa SSW 3.7 km/h 11.1 km/h 39 % 0 mm
14:19 11.7 °C -1.4 °C 1021.2 hPa SW 4.8 km/h 6.4 km/h 40 % 0 mm
14:24 11.8 °C -1.3 °C 1021.2 hPa WNW 2.4 km/h 5.6 km/h 40 % 0 mm
14:29 11.9 °C -1.3 °C 1021.2 hPa North 3.9 km/h 7.4 km/h 40 % 0 mm
14:34 12.2 °C -1.3 °C 1021.2 hPa West 6.8 km/h 11.3 km/h 39 % 0 mm
14:39 12.2 °C -1.3 °C 1021.2 hPa WNW 0.5 km/h 5.6 km/h 39 % 0 mm
14:44 12.2 °C -1.3 °C 1021.2 hPa WSW 5.3 km/h 8 km/h 39 % 0 mm
14:49 12.1 °C -1.8 °C 1021.2 hPa SSW 5 km/h 9.3 km/h 38 % 0 mm
14:54 11.9 °C -1.6 °C 1021.2 hPa West 6.9 km/h 11.1 km/h 39 % 0 mm
14:59 11.9 °C -2 °C 1021.2 hPa WNW 5.3 km/h 9.3 km/h 38 % 0 mm
15:04 11.8 °C -2.4 °C 1020.9 hPa WSW 7.1 km/h 11.3 km/h 37 % 0 mm
15:09 11.7 °C -2.6 °C 1020.9 hPa SW 5.5 km/h 9.3 km/h 37 % 0 mm
15:14 11.6 °C -2.2 °C 1020.9 hPa West 4.5 km/h 11.1 km/h 38 % 0 mm
15:19 11.7 °C -1.8 °C 1020.9 hPa South 3.4 km/h 4.8 km/h 39 % 0 mm
15:24 11.8 °C -2.1 °C 1020.9 hPa West 2.9 km/h 9.3 km/h 38 % 0 mm
15:29 11.8 °C -2.4 °C 1020.9 hPa WSW 4.7 km/h 9.3 km/h 37 % 0 mm
15:34 11.8 °C -2.4 °C 1020.9 hPa WNW 4.2 km/h 9.3 km/h 37 % 0 mm
15:39 11.6 °C -3 °C 1020.9 hPa WNW 1.6 km/h 7.4 km/h 36 % 0 mm
15:45 11.4 °C -2.8 °C 1020.5 hPa NW 3.7 km/h 5.6 km/h 37 % 0 mm
15:50 11.3 °C -2.6 °C 1020.5 hPa West 4.3 km/h 7.4 km/h 38 % 0 mm
15:55 11.2 °C -2.2 °C 1020.5 hPa WNW 4.8 km/h 9.3 km/h 39 % 0 mm
16:00 11.1 °C -2.3 °C 1020.5 hPa WNW 7.6 km/h 11.1 km/h 39 % 0 mm
16:05 11.1 °C -2.1 °C 1020.5 hPa WNW 4.5 km/h 11.1 km/h 40 % 0 mm
16:10 11 °C -2.4 °C 1020.5 hPa West 3.5 km/h 5.6 km/h 39 % 0 mm
16:15 10.9 °C -2.5 °C 1020.5 hPa WNW 5.8 km/h 9.3 km/h 39 % 0 mm
16:20 10.8 °C -2.6 °C 1020.2 hPa WNW 4.7 km/h 7.4 km/h 39 % 0 mm
16:25 10.8 °C -2.7 °C 1019.9 hPa West 1.4 km/h 6.4 km/h 39 % 0 mm
16:30 10.8 °C -2.3 °C 1020.2 hPa West 3.4 km/h 6.4 km/h 40 % 0 mm
16:31 10.8 °C -1.9 °C 1020.2 hPa WSW 7.1 km/h 9.3 km/h 41 % 0 mm
16:37 10.7 °C -2.7 °C 1019.9 hPa West 4.3 km/h 5.6 km/h 39 % 0 mm
16:42 10.6 °C -2.4 °C 1019.5 hPa West 4 km/h 5.6 km/h 40 % 0 mm
16:47 10.6 °C -2.1 °C 1019.2 hPa West 0.3 km/h 1.9 km/h 41 % 0 mm
16:52 10.7 °C -1.4 °C 1019.2 hPa Calm   1.9 km/h 43 % 0 mm
16:57 10.7 °C -1.7 °C 1019.2 hPa West 0.3 km/h 1.6 km/h 42 % 0 mm
17:02 10.7 °C -2.7 °C 1018.8 hPa Calm     39 % 0 mm
17:07 10.7 °C -2.3 °C 1018.5 hPa West 0.5 km/h 1.9 km/h 40 % 0 mm
17:12 10.8 °C -2.3 °C 1018.5 hPa Calm     40 % 0 mm
17:17 10.8 °C -0.7 °C 1018.8 hPa SSE 5.8 km/h 7.4 km/h 45 % 0 mm
17:22 10.7 °C -0.2 °C 1018.8 hPa SE 1.1 km/h 9.7 km/h 47 % 0 mm
17:27 10.7 °C 0.1 °C 1018.8 hPa SE 1.6 km/h 6.4 km/h 48 % 0 mm
17:32 10.4 °C -0.4 °C 1018.8 hPa SSE 4.8 km/h 19.3 km/h 47 % 0 mm
17:37 10.2 °C -0.1 °C 1018.8 hPa South 4.8 km/h 12.9 km/h 49 % 0 mm
17:42 10 °C -0.2 °C 1019.2 hPa South 4.8 km/h 11.3 km/h 49 % 0 mm
17:47 9.7 °C -0.2 °C 1018.8 hPa SSE 3.2 km/h 11.3 km/h 50 % 0 mm
17:52 9.6 °C 0.2 °C 1018.8 hPa South 1.6 km/h 8 km/h 52 % 0 mm
17:57 9.4 °C 0.3 °C 1019.2 hPa SSW 6 km/h 9.3 km/h 53 % 0 mm
18:03 9.2 °C 0.1 °C 1019.2 hPa South 7.2 km/h 9.3 km/h 53 % 0 mm
18:08 9.1 °C -0.1 °C 1019.2 hPa SSE 5.1 km/h 9.3 km/h 53 % 0 mm
18:13 8.9 °C 0.1 °C 1019.5 hPa SSW 10.5 km/h 16.7 km/h 54 % 0 mm
18:18 8.7 °C 0.1 °C 1019.5 hPa South 6 km/h 17.7 km/h 55 % 0 mm
18:23 8.4 °C -0.1 °C 1019.5 hPa SSW 10.9 km/h 14.8 km/h 55 % 0 mm
18:28 8.3 °C 0 °C 1019.9 hPa SSW 6.6 km/h 11.1 km/h 56 % 0 mm
18:33 8.2 °C -0.1 °C 1019.5 hPa South 9.3 km/h 17.7 km/h 56 % 0 mm
18:38 8 °C 0 °C 1019.5 hPa SSE 3.9 km/h 7.4 km/h 57 % 0 mm
18:43 7.9 °C 0.2 °C 1019.5 hPa SSW 5.3 km/h 9.3 km/h 58 % 0 mm
18:48 7.8 °C 0 °C 1019.5 hPa SSW 6.3 km/h 9.7 km/h 58 % 0 mm
18:53 7.7 °C 0.2 °C 1019.5 hPa South 6.1 km/h 11.3 km/h 59 % 0 mm
18:58 7.5 °C 0 °C 1019.2 hPa SSW 5.6 km/h 16.7 km/h 59 % 0 mm
19:03 7.3 °C 0.1 °C 1019.2 hPa South 2.4 km/h 9.3 km/h 60 % 0 mm
19:08 7.2 °C -0.1 °C 1019.2 hPa SSW 6.4 km/h 9.7 km/h 60 % 0 mm
19:13 7 °C 0 °C 1019.2 hPa South 9.3 km/h 11.3 km/h 61 % 0 mm
19:18 6.9 °C 0.1 °C 1019.2 hPa South 1.9 km/h 4.8 km/h 62 % 0 mm
19:23 6.8 °C 0.3 °C 1019.5 hPa SSE 6.4 km/h 7.4 km/h 63 % 0 mm
19:28 6.7 °C 0.4 °C 1019.5 hPa South 6.8 km/h 13 km/h 64 % 0 mm
19:33 6.7 °C 0.3 °C 1019.2 hPa South 0.3 km/h 5.6 km/h 64 % 0 mm
19:38 6.6 °C 0.2 °C 1019.2 hPa SSW 3.4 km/h 11.1 km/h 64 % 0 mm
19:44 6.5 °C 0.4 °C 1018.8 hPa South 7.9 km/h 14.5 km/h 65 % 0 mm
19:49 6.4 °C 0.3 °C 1018.8 hPa SSW 9.3 km/h 14.8 km/h 65 % 0 mm
19:54 6.4 °C 0.3 °C 1018.8 hPa South 8.7 km/h 16.7 km/h 65 % 0 mm
19:59 6.3 °C 0.4 °C 1019.2 hPa South 7.9 km/h 14.5 km/h 66 % 0 mm
20:04 6.2 °C 0.1 °C 1019.2 hPa SSW 5.3 km/h 7.4 km/h 65 % 0 mm
20:09 6.2 °C 0.1 °C 1019.2 hPa South 9 km/h 13 km/h 65 % 0 mm
20:14 6.2 °C 0.1 °C 1019.2 hPa SSW 8.5 km/h 13 km/h 65 % 0 mm
20:19 6.1 °C -0.2 °C 1019.5 hPa South 9.3 km/h 14.8 km/h 64 % 0 mm
20:24 6.1 °C -0.2 °C 1019.9 hPa SSW 7.7 km/h 13 km/h 64 % 0 mm
20:29 6.1 °C -0.2 °C 1019.9 hPa South 11.3 km/h 11.3 km/h 64 % 0 mm
20:34 6.1 °C -0.2 °C 1019.9 hPa South 7.1 km/h 11.3 km/h 64 % 0 mm
20:35 6.1 °C -0.1 °C 1019.9 hPa South 6.9 km/h 11.1 km/h 65 % 0 mm
20:40 6.1 °C -0.1 °C 1019.5 hPa SSW 8.4 km/h 14.8 km/h 65 % 0 mm
20:45 6.1 °C 0.2 °C 1019.5 hPa South 0.6 km/h 5.6 km/h 66 % 0 mm
20:50 6 °C 0.3 °C 1019.5 hPa SSW 9.7 km/h 16.7 km/h 67 % 0 mm
20:55 6 °C 0.3 °C 1019.5 hPa South 7.7 km/h 11.1 km/h 67 % 0 mm
21:00 6 °C 0.3 °C 1019.5 hPa South 3.2 km/h 7.4 km/h 67 % 0 mm
21:05 6 °C 0.3 °C 1019.5 hPa SSW 4.3 km/h 5.6 km/h 67 % 0 mm
21:10 5.9 °C 0.3 °C 1019.5 hPa SW 5.6 km/h 13 km/h 67 % 0 mm
21:15 5.9 °C 0.3 °C 1019.5 hPa SSE 2.9 km/h 5.6 km/h 67 % 0 mm
21:20 5.9 °C 0.3 °C 1019.5 hPa WSW 5 km/h 9.3 km/h 67 % 0 mm
21:25 5.9 °C 0.3 °C 1019.5 hPa SW 3.4 km/h 8 km/h 67 % 0 mm
21:30 5.9 °C 0.5 °C 1019.5 hPa SSE 5.1 km/h 7.4 km/h 68 % 0 mm
21:35 5.9 °C 0.5 °C 1019.5 hPa South 1 km/h 5.6 km/h 68 % 0 mm
21:40 5.9 °C 0.5 °C 1019.5 hPa WSW 9.2 km/h 13 km/h 68 % 0 mm
21:45 5.9 °C 0.5 °C 1019.5 hPa SW 2.6 km/h 5.6 km/h 68 % 0 mm
21:50 5.9 °C 0.6 °C 1019.9 hPa SW 1.8 km/h 6.4 km/h 69 % 0 mm
21:55 5.9 °C 0.7 °C 1019.9 hPa South 4.7 km/h 9.3 km/h 69 % 0 mm
22:00 5.9 °C 0.7 °C 1019.9 hPa SSW 3.7 km/h 8 km/h 69 % 0 mm
22:06 5.9 °C 0.8 °C 1019.5 hPa SSW 2.7 km/h 5.6 km/h 70 % 0 mm
22:11 5.9 °C 0.8 °C 1019.9 hPa SW 2.6 km/h 5.6 km/h 70 % 0 mm
22:16 5.9 °C 0.8 °C 1019.9 hPa Calm   1.9 km/h 70 % 0 mm
22:21 5.9 °C 1.1 °C 1019.9 hPa WSW 3.7 km/h 5.6 km/h 71 % 0 mm
22:26 5.8 °C 1 °C 1019.9 hPa SW 4 km/h 5.6 km/h 71 % 0 mm
22:31 5.8 °C 0.8 °C 1020.5 hPa WSW 1.3 km/h 5.6 km/h 70 % 0 mm
22:36 5.8 °C 0.8 °C 1020.9 hPa West 2.3 km/h 5.6 km/h 70 % 0 mm
22:41 5.8 °C 0.8 °C 1020.9 hPa SW 3.2 km/h 5.6 km/h 70 % 0 mm
22:46 5.8 °C 0.8 °C 1020.9 hPa SW 2.6 km/h 5.6 km/h 70 % 0 mm
22:51 5.9 °C 0.8 °C 1020.9 hPa SW 1.9 km/h 5.6 km/h 70 % 0 mm
22:56 5.8 °C 0.8 °C 1020.5 hPa Calm   1.9 km/h 70 % 0 mm
23:01 5.8 °C 0.8 °C 1020.2 hPa SW 1.6 km/h 5.6 km/h 70 % 0 mm
23:06 5.9 °C 0.8 °C 1020.2 hPa South 1.3 km/h 5.6 km/h 70 % 0 mm
23:11 5.9 °C 0.8 °C 1020.2 hPa Calm   1.9 km/h 70 % 0 mm
23:16 5.9 °C 1.1 °C 1020.5 hPa Calm     71 % 0 mm
23:21 5.9 °C 1.2 °C 1020.5 hPa Calm     72 % 0 mm
23:26 5.9 °C 1.2 °C 1020.2 hPa Calm   3.7 km/h 72 % 0 mm
23:31 5.8 °C 1.4 °C 1020.2 hPa Calm   1.9 km/h 73 % 0 mm
23:36 5.8 °C 1.4 °C 1019.9 hPa SSE 1 km/h 3.7 km/h 73 % 0 mm
23:41 5.8 °C 1.5 °C 1020.5 hPa SSE 2.1 km/h 3.7 km/h 74 % 0 mm
23:46 5.7 °C 1.6 °C 1020.5 hPa SSE 1.1 km/h 3.7 km/h 75 % 0 mm
23:51 5.7 °C 2 °C 1019.9 hPa SSE 1.1 km/h 3.7 km/h 77 % 0 mm
23:56 5.6 °C 2.1 °C 1019.5 hPa SSE 1.3 km/h 3.7 km/h 78 % 0 mm
Crab Meadow Weather
Compliments of Weather Underground - 3 mb

Script developed by  Jim McMurry - jmcmurry@mwt.net Adapted for the template by  Wim van der Kuil - Leuven-Template.eu

Weather Terms: Wind Chill - An apparent temperature that describes the combined effect of wind and low temperature on exposed skin.